Time;durP1;ratioP1;P1;durP2;ratioP2;P2;SDS_P1;SDS_P2;PMS_P1;PMS_P2;Temp;Humidity;BMP_temperature;BMP_pressure;BME280_temperature;BME280_humidity;BME280_pressure;Samples;Min_cycle;Max_cycle;Signal;HPM_P1;HPM_P2
2022/01/05 00:01:22;;;;;;;5.20;2.60;;;;;;;;;;5072467;28;20469;-60
2022/01/05 00:03:48;;;;;;;9.20;2.43;;;;;;;;;;5072861;28;20191;-61
2022/01/05 00:06:14;;;;;;;6.03;2.27;;;;;;;;;;5072429;28;20292;-64
2022/01/05 00:08:40;;;;;;;5.27;2.30;;;;;;;;;;5072788;28;20789;-64
2022/01/05 00:11:07;;;;;;;5.63;2.10;;;;;;;;;;5072575;28;20195;-64
2022/01/05 00:13:35;;;;;;;7.87;2.70;;;;;;;;;;5072524;28;20333;-64
2022/01/05 00:16:01;;;;;;;10.33;3.17;;;;;;;;;;5072667;28;20779;-63
2022/01/05 00:18:27;;;;;;;7.57;2.20;;;;;;;;;;5072230;28;20442;-64
2022/01/05 00:20:53;;;;;;;5.83;2.30;;;;;;;;;;5072416;28;20844;-64
2022/01/05 00:23:19;;;;;;;8.40;2.47;;;;;;;;;;5070542;28;20198;-61
2022/01/05 00:25:45;;;;;;;7.90;2.73;;;;;;;;;;5072330;28;20589;-61
2022/01/05 00:28:11;;;;;;;12.50;2.63;;;;;;;;;;5072429;28;20293;-61
2022/01/05 00:30:38;;;;;;;5.50;2.50;;;;;;;;;;5072213;28;20936;-61
2022/01/05 00:33:04;;;;;;;6.50;2.67;;;;;;;;;;5072327;28;20204;-62
2022/01/05 00:35:30;;;;;;;6.93;2.63;;;;;;;;;;5072255;28;20446;-60
2022/01/05 00:37:56;;;;;;;10.10;3.00;;;;;;;;;;5072244;28;20196;-61
2022/01/05 00:40:22;;;;;;;8.57;3.00;;;;;;;;;;5072078;28;20256;-62
2022/01/05 00:42:48;;;;;;;6.00;2.60;;;;;;;;;;5072104;28;20441;-64
2022/01/05 00:45:15;;;;;;;7.00;2.83;;;;;;;;;;5072042;28;20257;-63
2022/01/05 00:47:43;;;;;;;9.33;2.97;;;;;;;;;;5072031;28;20676;-63
2022/01/05 00:50:09;;;;;;;10.50;2.83;;;;;;;;;;5071575;28;20458;-60
2022/01/05 00:52:35;;;;;;;8.23;2.67;;;;;;;;;;5071671;28;20472;-61
2022/01/05 00:55:01;;;;;;;5.93;2.60;;;;;;;;;;5071909;28;20426;-61
2022/01/05 00:57:27;;;;;;;6.10;2.47;;;;;;;;;;5071768;28;20446;-63
2022/01/05 00:59:53;;;;;;;12.27;3.13;;;;;;;;;;5071952;28;20207;-63
2022/01/05 01:02:19;;;;;;;11.17;3.37;;;;;;;;;;5071764;28;20245;-62
2022/01/05 01:04:46;;;;;;;7.80;2.80;;;;;;;;;;5071871;28;20223;-62
2022/01/05 01:07:12;;;;;;;7.00;2.40;;;;;;;;;;5071841;28;20203;-62
2022/01/05 01:09:38;;;;;;;7.83;2.90;;;;;;;;;;5071754;28;20430;-62
2022/01/05 01:12:05;;;;;;;9.63;2.33;;;;;;;;;;5071870;28;20438;-62
2022/01/05 01:14:31;;;;;;;7.63;2.47;;;;;;;;;;5071704;28;20430;-63
2022/01/05 01:16:57;;;;;;;9.73;2.90;;;;;;;;;;5071724;28;20441;-63
2022/01/05 01:19:23;;;;;;;6.67;2.53;;;;;;;;;;5071631;28;20719;-62
2022/01/05 01:21:50;;;;;;;7.93;2.53;;;;;;;;;;5071874;28;20196;-63
2022/01/05 01:24:16;;;;;;;10.50;2.63;;;;;;;;;;5071666;28;20200;-63
2022/01/05 01:26:42;;;;;;;6.03;2.83;;;;;;;;;;5071491;28;20449;-63
2022/01/05 01:29:08;;;;;;;8.03;2.40;;;;;;;;;;5071503;28;20212;-63
2022/01/05 01:31:34;;;;;;;9.23;3.03;;;;;;;;;;5071532;28;20450;-63
2022/01/05 01:34:00;;;;;;;10.90;2.97;;;;;;;;;;5071604;28;20430;-63
2022/01/05 01:36:26;;;;;;;7.63;2.83;;;;;;;;;;5071451;28;20600;-63
2022/01/05 01:38:53;;;;;;;8.50;2.20;;;;;;;;;;5071501;28;20231;-63
2022/01/05 01:41:20;;;;;;;15.27;2.70;;;;;;;;;;5071539;28;20203;-62
2022/01/05 01:43:46;;;;;;;6.87;2.30;;;;;;;;;;5071638;28;20931;-62
2022/01/05 01:46:12;;;;;;;4.47;2.20;;;;;;;;;;5071329;28;21092;-63
2022/01/05 01:48:38;;;;;;;6.90;2.60;;;;;;;;;;5071376;28;20444;-62
2022/01/05 01:51:04;;;;;;;6.83;2.97;;;;;;;;;;5071628;28;20513;-63
2022/01/05 01:53:30;;;;;;;5.93;2.10;;;;;;;;;;5071318;28;20544;-61
2022/01/05 01:55:58;;;;;;;11.07;3.03;;;;;;;;;;5071397;28;20257;-63
2022/01/05 01:58:25;;;;;;;6.83;2.73;;;;;;;;;;5071335;28;20442;-63
2022/01/05 02:00:51;;;;;;;7.37;2.23;;;;;;;;;;5071493;28;20440;-62
2022/01/05 02:03:17;;;;;;;10.57;2.83;;;;;;;;;;5075024;28;20492;-62
2022/01/05 02:05:43;;;;;;;10.13;2.97;;;;;;;;;;5075012;28;20512;-63
2022/01/05 02:08:09;;;;;;;7.40;2.57;;;;;;;;;;5075107;28;20206;-62
2022/01/05 02:10:36;;;;;;;10.33;3.13;;;;;;;;;;5074913;28;20425;-63
2022/01/05 02:13:04;;;;;;;4.57;2.20;;;;;;;;;;5073378;28;20509;-63
2022/01/05 02:15:30;;;;;;;6.47;2.57;;;;;;;;;;5074923;28;20472;-63
2022/01/05 02:20:29;;;;;;;7.57;2.33;;;;;;;;;;5074814;28;20429;-63
2022/01/05 02:22:57;;;;;;;5.83;2.30;;;;;;;;;;5074882;28;20426;-63
2022/01/05 02:25:23;;;;;;;8.33;3.50;;;;;;;;;;5074556;28;20476;-62
2022/01/05 02:27:51;;;;;;;16.50;3.17;;;;;;;;;;5074807;28;20433;-62
2022/01/05 02:30:19;;;;;;;5.90;2.30;;;;;;;;;;5074617;28;20925;-62
2022/01/05 02:32:45;;;;;;;9.00;2.63;;;;;;;;;;5074617;28;20445;-62
2022/01/05 02:35:11;;;;;;;6.80;2.20;;;;;;;;;;5074658;28;20430;-63
2022/01/05 02:37:41;;;;;;;8.60;1.83;;;;;;;;;;5074436;28;20446;-63
2022/01/05 02:40:10;;;;;;;6.23;2.40;;;;;;;;;;5074365;28;20936;-62
2022/01/05 02:42:36;;;;;;;8.43;2.27;;;;;;;;;;5074387;28;20436;-63
2022/01/05 02:45:02;;;;;;;8.97;2.83;;;;;;;;;;5074316;28;20568;-62
2022/01/05 02:47:28;;;;;;;8.70;2.60;;;;;;;;;;5074173;28;20717;-61
2022/01/05 02:49:57;;;;;;;5.17;1.93;;;;;;;;;;5074212;28;20514;-62
2022/01/05 02:52:23;;;;;;;5.87;2.33;;;;;;;;;;5074004;28;20749;-62
2022/01/05 02:54:49;;;;;;;8.47;2.40;;;;;;;;;;5074125;28;20446;-62
2022/01/05 02:57:17;;;;;;;8.77;2.40;;;;;;;;;;5074194;28;20935;-61
2022/01/05 02:59:43;;;;;;;5.60;2.10;;;;;;;;;;5074118;28;20545;-61
2022/01/05 03:02:09;;;;;;;7.43;2.47;;;;;;;;;;5073905;28;20541;-62
2022/01/05 03:04:35;;;;;;;7.13;2.50;;;;;;;;;;5073990;28;20586;-63
2022/01/05 03:07:01;;;;;;;9.23;2.70;;;;;;;;;;5074149;28;20874;-63
2022/01/05 03:09:27;;;;;;;8.50;3.43;;;;;;;;;;5073807;28;20481;-63
2022/01/05 03:11:53;;;;;;;7.93;2.33;;;;;;;;;;5073565;28;20206;-63
2022/01/05 03:14:21;;;;;;;8.73;2.33;;;;;;;;;;5073976;28;20560;-63
2022/01/05 03:16:47;;;;;;;7.83;2.20;;;;;;;;;;5073960;28;20442;-62
2022/01/05 03:19:13;;;;;;;8.80;2.50;;;;;;;;;;5073702;28;20860;-63
2022/01/05 03:21:39;;;;;;;5.73;2.17;;;;;;;;;;5073626;28;20775;-63
2022/01/05 03:24:05;;;;;;;10.53;2.80;;;;;;;;;;5073665;28;20970;-63
2022/01/05 03:26:31;;;;;;;8.87;2.30;;;;;;;;;;5073525;28;20223;-63
2022/01/05 03:28:57;;;;;;;7.77;2.10;;;;;;;;;;5073491;28;20446;-61
2022/01/05 03:31:25;;;;;;;8.30;2.27;;;;;;;;;;5073446;28;20673;-62
2022/01/05 03:33:51;;;;;;;6.73;1.80;;;;;;;;;;5073400;28;20444;-62
2022/01/05 03:36:17;;;;;;;8.43;2.47;;;;;;;;;;5073387;28;20728;-62
2022/01/05 03:38:43;;;;;;;9.87;2.10;;;;;;;;;;5073144;28;20208;-62
2022/01/05 03:41:09;;;;;;;4.93;1.80;;;;;;;;;;5071559;28;20430;-62
2022/01/05 03:43:35;;;;;;;6.50;2.13;;;;;;;;;;5073041;28;20192;-62
2022/01/05 03:46:01;;;;;;;12.03;2.33;;;;;;;;;;5073174;28;20465;-62
2022/01/05 03:48:28;;;;;;;9.63;2.83;;;;;;;;;;5073021;28;20525;-62
2022/01/05 03:50:54;;;;;;;8.67;2.33;;;;;;;;;;5072989;28;20437;-62
2022/01/05 03:53:20;;;;;;;5.03;1.73;;;;;;;;;;5073008;28;20536;-63
2022/01/05 03:55:47;;;;;;;8.20;2.60;;;;;;;;;;5072855;28;20920;-65
2022/01/05 03:58:13;;;;;;;5.30;2.10;;;;;;;;;;5072898;28;20437;-62
2022/01/05 04:00:41;;;;;;;7.13;2.33;;;;;;;;;;5072851;28;20441;-62
2022/01/05 04:03:07;;;;;;;7.60;2.37;;;;;;;;;;5072599;28;20477;-62
2022/01/05 04:05:34;;;;;;;14.10;2.93;;;;;;;;;;5072738;28;20563;-61
2022/01/05 04:08:00;;;;;;;9.60;2.43;;;;;;;;;;5072816;28;20207;-63
2022/01/05 04:10:26;;;;;;;6.93;1.93;;;;;;;;;;5072644;28;20461;-64
2022/01/05 04:12:52;;;;;;;6.87;2.20;;;;;;;;;;5072701;28;20449;-63
2022/01/05 04:15:18;;;;;;;5.60;2.23;;;;;;;;;;5072829;28;20491;-63
2022/01/05 04:17:45;;;;;;;6.83;2.60;;;;;;;;;;5072366;28;20433;-62
2022/01/05 04:20:11;;;;;;;8.40;2.67;;;;;;;;;;5072446;28;20441;-63
2022/01/05 04:22:39;;;;;;;6.20;2.40;;;;;;;;;;5072445;28;20434;-63
2022/01/05 04:25:05;;;;;;;4.10;2.00;;;;;;;;;;5071510;28;21058;-64
2022/01/05 04:27:31;;;;;;;7.23;2.20;;;;;;;;;;5072447;28;20473;-63
2022/01/05 04:29:57;;;;;;;5.77;2.23;;;;;;;;;;5072148;28;20457;-63
2022/01/05 04:32:23;;;;;;;8.37;3.00;;;;;;;;;;5072218;28;20801;-63
2022/01/05 04:34:49;;;;;;;12.03;2.67;;;;;;;;;;5072255;28;20426;-65
2022/01/05 04:37:15;;;;;;;7.33;2.30;;;;;;;;;;5072314;28;20495;-63
2022/01/05 04:39:43;;;;;;;11.17;3.10;;;;;;;;;;5072090;28;20199;-63
2022/01/05 04:42:09;;;;;;;8.60;2.67;;;;;;;;;;5072227;28;20227;-62
2022/01/05 04:44:35;;;;;;;5.87;1.97;;;;;;;;;;5071957;28;20434;-63
2022/01/05 04:47:01;;;;;;;7.00;2.70;;;;;;;;;;5072171;28;20989;-63
2022/01/05 04:49:27;;;;;;;6.43;2.27;;;;;;;;;;5072129;28;20261;-63
2022/01/05 04:51:53;;;;;;;7.87;2.37;;;;;;;;;;5071992;28;20631;-64
2022/01/05 04:54:19;;;;;;;5.73;3.30;;;;;;;;;;5072031;28;20223;-63
2022/01/05 04:56:46;;;;;;;9.30;2.20;;;;;;;;;;5071865;28;20981;-63
2022/01/05 04:59:12;;;;;;;8.10;2.07;;;;;;;;;;5072011;28;20211;-63
2022/01/05 05:01:38;;;;;;;5.50;2.00;;;;;;;;;;5071585;28;20465;-63
2022/01/05 05:04:04;;;;;;;6.80;2.10;;;;;;;;;;5072073;28;20203;-62
2022/01/05 05:06:30;;;;;;;9.40;2.80;;;;;;;;;;5071800;28;21052;-63
2022/01/05 05:08:56;;;;;;;9.00;2.30;;;;;;;;;;5071870;28;20199;-63
2022/01/05 05:11:22;;;;;;;7.60;2.57;;;;;;;;;;5071879;28;20445;-63
2022/01/05 05:14:03;;;;;;;11.90;2.50;;;;;;;;;;5071941;28;20191;-65
2022/01/05 05:16:31;;;;;;;8.07;2.43;;;;;;;;;;5069346;28;20240;-63
2022/01/05 05:18:57;;;;;;;9.20;2.30;;;;;;;;;;5071870;28;20450;-63
2022/01/05 05:21:23;;;;;;;7.30;2.37;;;;;;;;;;5071751;28;20448;-63
2022/01/05 05:23:49;;;;;;;6.53;1.90;;;;;;;;;;5071739;28;20673;-62
2022/01/05 05:26:15;;;;;;;5.07;2.10;;;;;;;;;;5071669;28;20243;-62
2022/01/05 05:28:41;;;;;;;7.37;2.40;;;;;;;;;;5071474;28;20199;-63
2022/01/05 05:31:07;;;;;;;4.87;2.30;;;;;;;;;;5071664;28;20442;-63
2022/01/05 05:33:34;;;;;;;7.90;2.80;;;;;;;;;;5071694;28;20205;-62
2022/01/05 05:36:02;;;;;;;11.27;2.87;;;;;;;;;;5073665;28;20599;-62
2022/01/05 05:38:28;;;;;;;7.27;2.40;;;;;;;;;;5075502;28;20571;-63
2022/01/05 05:40:54;;;;;;;7.40;2.30;;;;;;;;;;5075485;28;20470;-62
2022/01/05 05:43:20;;;;;;;8.40;1.97;;;;;;;;;;5075138;28;20437;-63
2022/01/05 05:45:47;;;;;;;4.33;1.87;;;;;;;;;;5075479;28;20481;-63
2022/01/05 05:48:13;;;;;;;7.07;2.40;;;;;;;;;;5075470;28;20488;-64
2022/01/05 05:50:40;;;;;;;5.93;2.20;;;;;;;;;;5075359;28;20452;-64
2022/01/05 05:53:06;;;;;;;7.87;2.53;;;;;;;;;;5075060;28;20882;-64
2022/01/05 05:55:33;;;;;;;8.43;2.63;;;;;;;;;;5074796;28;20430;-64
2022/01/05 05:57:59;;;;;;;7.77;2.17;;;;;;;;;;5074914;28;20232;-64
2022/01/05 06:00:25;;;;;;;8.20;2.33;;;;;;;;;;5073510;28;20430;-62
2022/01/05 06:02:51;;;;;;;10.43;2.43;;;;;;;;;;5074478;28;20552;-64
2022/01/05 06:05:18;;;;;;;8.53;2.80;;;;;;;;;;5075014;28;20538;-64
2022/01/05 06:07:45;;;;;;;11.23;2.90;;;;;;;;;;5074584;28;20434;-65
2022/01/05 06:10:17;;;;;;;14.87;2.93;;;;;;;;;;5074681;28;20442;-62
2022/01/05 06:12:43;;;;;;;5.00;2.57;;;;;;;;;;5074599;28;20448;-63
2022/01/05 06:15:09;;;;;;;9.53;2.57;;;;;;;;;;5074694;28;20520;-64
2022/01/05 06:17:35;;;;;;;9.47;2.80;;;;;;;;;;5074818;28;20629;-64
2022/01/05 06:20:03;;;;;;;9.23;2.40;;;;;;;;;;5074633;28;20464;-62
2022/01/05 06:22:29;;;;;;;5.67;2.60;;;;;;;;;;5074582;28;20196;-64
2022/01/05 06:24:57;;;;;;;9.73;2.77;;;;;;;;;;5074252;28;20476;-63
2022/01/05 06:27:23;;;;;;;6.50;2.70;;;;;;;;;;5074419;28;20203;-64
2022/01/05 06:29:49;;;;;;;6.93;2.73;;;;;;;;;;5074376;28;20631;-64
2022/01/05 06:32:15;;;;;;;8.80;2.60;;;;;;;;;;5074337;28;20254;-63
2022/01/05 06:34:41;;;;;;;8.40;2.70;;;;;;;;;;5074191;28;20430;-63
2022/01/05 06:37:07;;;;;;;10.30;3.23;;;;;;;;;;5074216;28;20618;-63
2022/01/05 06:39:33;;;;;;;12.47;2.90;;;;;;;;;;5074175;28;20196;-64
2022/01/05 06:42:00;;;;;;;9.27;2.57;;;;;;;;;;5074214;28;20444;-63
2022/01/05 06:44:26;;;;;;;9.83;2.67;;;;;;;;;;5074084;28;20909;-64
2022/01/05 06:46:52;;;;;;;9.03;2.80;;;;;;;;;;5072970;28;20573;-64
2022/01/05 06:49:20;;;;;;;9.10;2.60;;;;;;;;;;5073936;28;20672;-63
2022/01/05 06:51:46;;;;;;;5.83;2.20;;;;;;;;;;5074048;28;20422;-64
2022/01/05 06:54:12;;;;;;;9.57;3.07;;;;;;;;;;5073789;28;20459;-64
2022/01/05 06:56:38;;;;;;;12.20;3.30;;;;;;;;;;5073801;28;20828;-64
2022/01/05 06:59:05;;;;;;;6.87;2.90;;;;;;;;;;5073758;28;20317;-63
2022/01/05 07:01:31;;;;;;;9.87;3.53;;;;;;;;;;5073605;28;20202;-63
2022/01/05 07:03:59;;;;;;;6.77;2.77;;;;;;;;;;5073663;28;20508;-64
2022/01/05 07:06:25;;;;;;;8.30;2.93;;;;;;;;;;5073600;28;20465;-65
2022/01/05 07:08:51;;;;;;;6.63;2.50;;;;;;;;;;5073482;28;20495;-64
2022/01/05 07:11:17;;;;;;;11.80;3.30;;;;;;;;;;5073839;28;20956;-63
2022/01/05 07:13:43;;;;;;;11.23;3.10;;;;;;;;;;5073425;28;20261;-64
2022/01/05 07:16:10;;;;;;;13.47;3.03;;;;;;;;;;5073402;28;20946;-64
2022/01/05 07:18:36;;;;;;;14.00;2.97;;;;;;;;;;5073185;28;20199;-63
2022/01/05 07:21:02;;;;;;;5.07;2.50;;;;;;;;;;5073441;28;21019;-64
2022/01/05 07:23:28;;;;;;;9.13;3.13;;;;;;;;;;5073250;28;20202;-65
2022/01/05 07:25:54;;;;;;;8.00;3.20;;;;;;;;;;5073143;28;20473;-63
2022/01/05 07:28:20;;;;;;;10.13;3.43;;;;;;;;;;5073319;28;20204;-65
2022/01/05 07:30:46;;;;;;;9.60;3.53;;;;;;;;;;5073169;28;20666;-63
2022/01/05 07:33:14;;;;;;;9.80;3.30;;;;;;;;;;5073231;28;20199;-62
2022/01/05 07:35:40;;;;;;;10.33;2.70;;;;;;;;;;5073044;28;20206;-63
2022/01/05 07:38:06;;;;;;;9.00;2.73;;;;;;;;;;5072670;28;20482;-64
2022/01/05 07:40:32;;;;;;;8.60;3.00;;;;;;;;;;5072841;28;20441;-64
2022/01/05 07:42:58;;;;;;;10.30;3.00;;;;;;;;;;5072944;28;21023;-63
2022/01/05 07:45:24;;;;;;;14.63;3.00;;;;;;;;;;5072802;28;20227;-64
2022/01/05 07:47:50;;;;;;;13.57;3.70;;;;;;;;;;5072872;28;20214;-62
2022/01/05 07:50:17;;;;;;;9.77;3.57;;;;;;;;;;5073070;28;20195;-63
2022/01/05 07:52:47;;;;;;;10.03;2.97;;;;;;;;;;5072478;28;20291;-64
2022/01/05 07:55:14;;;;;;;9.83;3.00;;;;;;;;;;5072811;28;20434;-62
2022/01/05 07:57:40;;;;;;;11.00;3.97;;;;;;;;;;5072621;28;20434;-63
2022/01/05 08:00:07;;;;;;;12.40;4.23;;;;;;;;;;5072597;28;20488;-63
2022/01/05 08:02:33;;;;;;;14.13;3.73;;;;;;;;;;5072529;28;20477;-65
2022/01/05 08:04:59;;;;;;;10.27;3.53;;;;;;;;;;5072365;28;20545;-64
2022/01/05 08:07:26;;;;;;;6.30;3.17;;;;;;;;;;5072602;28;20865;-63
2022/01/05 08:09:52;;;;;;;8.70;3.10;;;;;;;;;;5072398;28;20283;-62
2022/01/05 08:12:18;;;;;;;10.47;3.20;;;;;;;;;;5072653;28;20541;-63
2022/01/05 08:14:44;;;;;;;5.53;2.83;;;;;;;;;;5072384;28;20200;-65
2022/01/05 08:17:10;;;;;;;10.40;3.77;;;;;;;;;;5072661;28;20242;-63
2022/01/05 08:19:36;;;;;;;7.50;3.07;;;;;;;;;;5072519;28;20192;-64
2022/01/05 08:22:02;;;;;;;9.73;3.50;;;;;;;;;;5072362;28;20196;-61
2022/01/05 08:24:30;;;;;;;13.33;3.33;;;;;;;;;;5072064;28;20495;-62
2022/01/05 08:26:56;;;;;;;10.40;3.40;;;;;;;;;;5071821;28;20484;-62
2022/01/05 08:29:23;;;;;;;10.47;3.33;;;;;;;;;;5071959;28;20426;-62
2022/01/05 08:31:49;;;;;;;11.77;3.13;;;;;;;;;;5071910;28;20207;-61
2022/01/05 08:34:15;;;;;;;6.63;3.20;;;;;;;;;;5071855;28;21023;-61
2022/01/05 08:36:41;;;;;;;13.70;3.80;;;;;;;;;;5071705;28;20517;-62
2022/01/05 08:39:07;;;;;;;7.47;3.37;;;;;;;;;;5071615;28;20461;-62
2022/01/05 08:41:35;;;;;;;7.77;3.37;;;;;;;;;;5072080;28;20434;-62
2022/01/05 08:44:01;;;;;;;13.10;4.53;;;;;;;;;;5071934;28;20800;-62
2022/01/05 08:46:27;;;;;;;9.13;3.63;;;;;;;;;;5071908;28;20572;-62
2022/01/05 08:48:53;;;;;;;11.07;3.43;;;;;;;;;;5071614;28;20540;-63
2022/01/05 08:51:19;;;;;;;13.20;4.10;;;;;;;;;;5071687;28;20210;-62
2022/01/05 08:53:45;;;;;;;11.70;3.90;;;;;;;;;;5071594;28;20457;-62
2022/01/05 08:56:11;;;;;;;11.50;4.07;;;;;;;;;;5071616;28;20488;-62
2022/01/05 08:58:39;;;;;;;8.27;3.20;;;;;;;;;;5071518;28;20195;-62
2022/01/05 09:01:07;;;;;;;8.40;3.23;;;;;;;;;;5071334;28;20442;-63
2022/01/05 09:03:33;;;;;;;9.83;3.73;;;;;;;;;;5071399;28;20481;-60
2022/01/05 09:06:00;;;;;;;8.63;3.83;;;;;;;;;;5071372;28;20476;-63
2022/01/05 09:08:26;;;;;;;6.63;3.00;;;;;;;;;;5071284;28;20215;-61
2022/01/05 09:10:52;;;;;;;9.17;3.60;;;;;;;;;;5071005;28;20434;-61
2022/01/05 09:13:19;;;;;;;8.23;3.30;;;;;;;;;;5071198;28;20444;-62
2022/01/05 09:15:46;;;;;;;10.03;4.17;;;;;;;;;;5071268;28;20912;-62
2022/01/05 09:18:15;;;;;;;13.60;4.23;;;;;;;;;;5071185;28;20430;-61
2022/01/05 09:20:41;;;;;;;13.47;4.33;;;;;;;;;;5071238;28;20769;-62
2022/01/05 09:23:07;;;;;;;6.37;3.40;;;;;;;;;;5071122;28;20465;-62
2022/01/05 09:25:33;;;;;;;8.80;3.53;;;;;;;;;;5071348;28;20851;-61
2022/01/05 09:28:01;;;;;;;10.10;3.80;;;;;;;;;;5071343;28;20426;-62
2022/01/05 09:30:27;;;;;;;6.63;3.23;;;;;;;;;;5071485;28;20879;-62
2022/01/05 09:32:55;;;;;;;8.53;3.40;;;;;;;;;;5071090;28;20504;-62
2022/01/05 09:35:23;;;;;;;7.73;3.23;;;;;;;;;;5071055;28;20442;-61
2022/01/05 09:38:09;;;;;;;8.67;3.43;;;;;;;;;;5071343;28;20434;-62
2022/01/05 09:43:21;;;;;;;11.83;3.60;;;;;;;;;;5070697;28;20475;-62
2022/01/05 09:45:54;;;;;;;9.40;3.30;;;;;;;;;;5070821;28;20481;-62
2022/01/05 09:48:28;;;;;;;8.80;3.30;;;;;;;;;;5070872;28;20501;-62
2022/01/05 09:50:55;;;;;;;9.33;3.37;;;;;;;;;;5070728;28;20442;-63
2022/01/05 09:53:23;;;;;;;6.27;2.90;;;;;;;;;;5070624;28;20462;-62
2022/01/05 09:55:51;;;;;;;8.97;3.27;;;;;;;;;;5070928;28;20448;-62
2022/01/05 09:58:19;;;;;;;6.77;2.80;;;;;;;;;;5070854;28;20442;-62
2022/01/05 10:00:45;;;;;;;11.20;3.47;;;;;;;;;;5071006;28;20446;-63
2022/01/05 10:03:14;;;;;;;5.07;2.57;;;;;;;;;;5070569;28;20670;-62
2022/01/05 10:05:41;;;;;;;6.80;3.10;;;;;;;;;;5070916;28;20820;-63
2022/01/05 10:08:07;;;;;;;4.40;2.70;;;;;;;;;;5070711;28;20441;-63
2022/01/05 10:10:33;;;;;;;3.67;2.73;;;;;;;;;;5070741;28;20838;-62
2022/01/05 10:13:00;;;;;;;4.90;2.83;;;;;;;;;;5070844;28;20458;-62
2022/01/05 10:15:26;;;;;;;4.90;2.50;;;;;;;;;;5070839;28;20540;-61
2022/01/05 10:18:08;;;;;;;3.17;2.37;;;;;;;;;;5070796;28;20434;-62
2022/01/05 10:20:34;;;;;;;3.30;2.30;;;;;;;;;;5071067;28;20947;-62
2022/01/05 10:23:01;;;;;;;4.73;2.80;;;;;;;;;;5072691;28;20437;-63
2022/01/05 10:25:28;;;;;;;4.40;2.50;;;;;;;;;;5074416;28;20261;-62
2022/01/05 10:27:55;;;;;;;4.33;2.50;;;;;;;;;;5074152;28;20867;-62
2022/01/05 10:30:21;;;;;;;3.83;2.50;;;;;;;;;;5074465;28;20503;-63
2022/01/05 10:32:54;;;;;;;4.60;2.80;;;;;;;;;;5074266;28;21014;-61
2022/01/05 10:35:24;;;;;;;3.43;2.77;;;;;;;;;;5074465;28;20461;-59
2022/01/05 10:37:56;;;;;;;4.57;2.87;;;;;;;;;;5074312;28;20916;-67
2022/01/05 10:40:23;;;;;;;3.57;2.90;;;;;;;;;;5074013;28;20465;-67
2022/01/05 10:42:51;;;;;;;4.90;3.00;;;;;;;;;;5074318;28;20437;-65
2022/01/05 10:45:19;;;;;;;4.17;3.40;;;;;;;;;;5074019;28;20477;-68
2022/01/05 10:47:59;;;;;;;5.50;3.37;;;;;;;;;;5073944;28;20864;-64
2022/01/05 10:50:25;;;;;;;4.37;3.00;;;;;;;;;;5074140;28;20421;-63
2022/01/05 10:52:52;;;;;;;5.57;3.10;;;;;;;;;;5073895;28;20930;-66
2022/01/05 10:55:19;;;;;;;5.50;3.07;;;;;;;;;;5074112;28;20562;-62
2022/01/05 10:57:56;;;;;;;4.30;2.83;;;;;;;;;;5074387;28;20430;-65
2022/01/05 11:00:31;;;;;;;5.80;2.70;;;;;;;;;;5073951;28;20455;-67
2022/01/05 11:02:57;;;;;;;4.43;2.97;;;;;;;;;;5073661;28;20530;-68
2022/01/05 11:05:23;;;;;;;4.40;3.10;;;;;;;;;;5073801;28;20860;-67
2022/01/05 11:07:49;;;;;;;4.43;3.13;;;;;;;;;;5074056;28;20204;-62
2022/01/05 11:10:16;;;;;;;4.17;3.10;;;;;;;;;;5073851;28;20658;-63
2022/01/05 11:12:43;;;;;;;3.37;3.07;;;;;;;;;;5073819;28;20405;-64
2022/01/05 11:15:22;;;;;;;3.87;3.10;;;;;;;;;;5073524;28;20457;-65
2022/01/05 11:18:08;;;;;;;3.13;2.63;;;;;;;;;;5073980;28;20434;-65
2022/01/05 11:20:35;;;;;;;3.50;2.63;;;;;;;;;;5073971;28;20430;-66
2022/01/05 11:23:01;;;;;;;2.93;2.67;;;;;;;;;;5073688;28;20438;-67
2022/01/05 11:25:27;;;;;;;3.70;3.00;;;;;;;;;;5073429;28;20474;-71
2022/01/05 11:27:53;;;;;;;4.33;2.67;;;;;;;;;;5073924;28;20191;-74
2022/01/05 11:30:20;;;;;;;5.23;3.30;;;;;;;;;;5073921;28;20989;-77
2022/01/05 11:32:47;;;;;;;5.03;3.60;;;;;;;;;;5073540;28;20453;-75
2022/01/05 11:35:13;;;;;;;3.57;3.20;;;;;;;;;;5073572;28;20790;-65
2022/01/05 11:37:39;;;;;;;4.73;3.00;;;;;;;;;;5073511;28;20453;-64
2022/01/05 11:40:06;;;;;;;4.77;3.37;;;;;;;;;;5073215;28;20249;-65
2022/01/05 11:42:33;;;;;;;5.60;3.37;;;;;;;;;;5073576;28;20230;-63
2022/01/05 11:44:59;;;;;;;5.73;3.57;;;;;;;;;;5073173;28;20469;-64
2022/01/05 11:47:27;;;;;;;4.87;4.20;;;;;;;;;;5072893;28;20535;-65
2022/01/05 11:49:54;;;;;;;4.83;3.10;;;;;;;;;;5073205;28;20209;-65
2022/01/05 11:52:50;;;;;;;4.90;3.07;;;;;;;;;;5072878;28;20456;-67
2022/01/05 11:55:18;;;;;;;3.80;2.67;;;;;;;;;;5072652;28;20473;-65
2022/01/05 11:58:08;;;;;;;4.73;3.23;;;;;;;;;;5072183;28;20434;-64
2022/01/05 12:00:34;;;;;;;5.20;3.00;;;;;;;;;;5072401;28;20430;-67
2022/01/05 12:03:01;;;;;;;5.33;2.80;;;;;;;;;;5072500;28;20975;-66
2022/01/05 12:05:27;;;;;;;5.97;3.23;;;;;;;;;;5072399;28;20235;-66
2022/01/05 12:07:55;;;;;;;3.57;2.97;;;;;;;;;;5072273;28;20438;-65
2022/01/05 12:10:23;;;;;;;4.07;2.43;;;;;;;;;;5072294;28;20931;-65
2022/01/05 12:12:53;;;;;;;3.73;2.60;;;;;;;;;;5072648;28;20474;-67
2022/01/05 12:15:34;;;;;;;3.33;2.70;;;;;;;;;;5072539;28;20920;-67
2022/01/05 12:18:02;;;;;;;5.23;3.00;;;;;;;;;;5072321;28;20528;-66
2022/01/05 12:20:33;;;;;;;4.40;2.70;;;;;;;;;;5072569;28;20426;-65
2022/01/05 12:23:14;;;;;;;4.90;2.83;;;;;;;;;;5072236;28;20780;-67
2022/01/05 12:25:59;;;;;;;3.47;2.73;;;;;;;;;;5072591;28;20542;-66
2022/01/05 12:28:27;;;;;;;5.40;2.70;;;;;;;;;;5072356;28;20436;-66
2022/01/05 12:30:53;;;;;;;5.63;2.93;;;;;;;;;;5072326;28;20430;-66
2022/01/05 12:33:20;;;;;;;2.60;2.40;;;;;;;;;;5072450;28;20520;-67
2022/01/05 12:35:51;;;;;;;3.67;2.50;;;;;;;;;;5072391;28;20191;-67
2022/01/05 12:38:30;;;;;;;3.77;2.87;;;;;;;;;;5072283;28;20455;-65
2022/01/05 12:40:56;;;;;;;5.70;2.97;;;;;;;;;;5072161;28;20524;-66
2022/01/05 12:43:34;;;;;;;4.90;2.57;;;;;;;;;;5072095;28;20434;-66
2022/01/05 12:46:03;;;;;;;4.93;3.00;;;;;;;;;;5071514;28;20473;-66
2022/01/05 12:48:48;;;;;;;5.33;2.67;;;;;;;;;;5072006;28;20506;-66
2022/01/05 12:51:32;;;;;;;4.10;3.30;;;;;;;;;;5072032;28;20422;-65
2022/01/05 12:54:01;;;;;;;5.30;2.80;;;;;;;;;;5072151;28;20584;-66
2022/01/05 12:56:28;;;;;;;6.70;2.87;;;;;;;;;;5071852;28;20442;-66
2022/01/05 12:58:56;;;;;;;3.37;2.10;;;;;;;;;;5070207;28;20450;-66
2022/01/05 13:01:23;;;;;;;4.10;2.00;;;;;;;;;;5071672;28;20853;-66
2022/01/05 13:03:50;;;;;;;7.23;2.43;;;;;;;;;;5071904;28;20967;-66
2022/01/05 13:06:18;;;;;;;4.73;2.53;;;;;;;;;;5071950;28;20469;-66
2022/01/05 13:08:47;;;;;;;4.50;2.50;;;;;;;;;;5071733;28;20199;-63
2022/01/05 13:11:14;;;;;;;7.87;2.63;;;;;;;;;;5070274;28;20434;-65
2022/01/05 13:13:42;;;;;;;3.30;2.10;;;;;;;;;;5071840;28;20446;-65
2022/01/05 13:16:08;;;;;;;4.07;2.20;;;;;;;;;;5071806;28;20448;-67
2022/01/05 13:18:34;;;;;;;5.17;2.50;;;;;;;;;;5071931;28;20567;-65
2022/01/05 13:21:00;;;;;;;4.33;2.43;;;;;;;;;;5071684;28;20446;-66
2022/01/05 13:23:26;;;;;;;7.37;2.87;;;;;;;;;;5071553;28;20801;-65
2022/01/05 13:25:52;;;;;;;7.40;2.60;;;;;;;;;;5071693;28;20230;-66
2022/01/05 13:28:20;;;;;;;8.47;2.63;;;;;;;;;;5071662;28;20551;-64
2022/01/05 13:30:46;;;;;;;6.87;2.50;;;;;;;;;;5058628;28;20235;-66
2022/01/05 13:33:15;;;;;;;8.27;2.70;;;;;;;;;;5057791;28;20434;-66
2022/01/05 13:35:41;;;;;;;9.07;2.93;;;;;;;;;;5071468;28;20440;-73
2022/01/05 13:38:12;;;;;;;9.13;3.07;;;;;;;;;;5071469;28;20449;-67
2022/01/05 13:40:40;;;;;;;6.00;3.00;;;;;;;;;;5071921;28;20434;-67
2022/01/05 13:43:07;;;;;;;6.83;3.13;;;;;;;;;;5071758;28;20426;-66
2022/01/05 13:45:38;;;;;;;8.03;3.03;;;;;;;;;;5071467;28;20889;-67
2022/01/05 13:48:06;;;;;;;7.83;3.13;;;;;;;;;;5071542;28;20989;-65
2022/01/05 13:50:36;;;;;;;6.07;2.17;;;;;;;;;;5071408;28;20482;-65
2022/01/05 13:53:04;;;;;;;4.77;2.33;;;;;;;;;;5071370;28;21042;-65
2022/01/05 13:55:32;;;;;;;4.83;2.30;;;;;;;;;;5070880;28;20956;-66
2022/01/05 13:58:03;;;;;;;6.17;2.73;;;;;;;;;;5075161;28;20437;-66
2022/01/05 14:00:29;;;;;;;7.57;2.83;;;;;;;;;;5069984;28;20936;-61
2022/01/05 14:02:56;;;;;;;9.83;2.90;;;;;;;;;;5074683;28;20998;-63
2022/01/05 14:05:22;;;;;;;6.27;2.90;;;;;;;;;;5074790;28;20434;-63
2022/01/05 14:08:00;;;;;;;5.43;2.80;;;;;;;;;;5075176;28;20442;-61
2022/01/05 14:10:27;;;;;;;12.40;3.10;;;;;;;;;;5074827;28;20217;-61
2022/01/05 14:12:59;;;;;;;7.87;2.80;;;;;;;;;;5074822;28;20487;-61
2022/01/05 14:15:26;;;;;;;7.07;2.80;;;;;;;;;;5074527;28;20939;-61
2022/01/05 14:18:02;;;;;;;4.63;2.83;;;;;;;;;;5073619;28;20537;-62
2022/01/05 14:20:28;;;;;;;7.87;2.50;;;;;;;;;;5074525;28;20472;-62
2022/01/05 14:22:58;;;;;;;7.07;2.80;;;;;;;;;;5073171;28;20775;-62
2022/01/05 14:25:31;;;;;;;8.03;2.50;;;;;;;;;;5074255;28;20937;-61
2022/01/05 14:27:57;;;;;;;8.03;2.43;;;;;;;;;;5074641;28;20448;-61
2022/01/05 14:30:31;;;;;;;9.83;4.00;;;;;;;;;;5074485;28;20456;-60
2022/01/05 14:32:57;;;;;;;10.20;3.13;;;;;;;;;;5072304;28;21000;-61
2022/01/05 14:35:28;;;;;;;11.10;3.10;;;;;;;;;;5074275;28;20442;-68
2022/01/05 14:37:56;;;;;;;13.00;3.50;;;;;;;;;;5074258;28;20208;-68
2022/01/05 14:40:23;;;;;;;8.40;2.13;;;;;;;;;;5073950;28;20863;-68
2022/01/05 14:42:53;;;;;;;10.03;2.60;;;;;;;;;;5074227;28;20460;-67
2022/01/05 14:45:20;;;;;;;7.30;2.50;;;;;;;;;;5073984;28;20450;-67
2022/01/05 14:47:46;;;;;;;10.43;2.73;;;;;;;;;;5074290;28;20436;-68